Time;durP1;ratioP1;P1;durP2;ratioP2;P2;SDS_P1;SDS_P2;PMS_P1;PMS_P2;Temp;Humidity;BMP_temperature;BMP_pressure;BME280_temperature;BME280_humidity;BME280_pressure;Samples;Min_cycle;Max_cycle;Signal;HPM_P1;HPM_P2
2022/05/23 00:01:21;;;;;;;3.20;1.33;;;14.40;99.90;;;;;;5067582;28;20106;-68
2022/05/23 00:03:47;;;;;;;6.03;1.77;;;14.40;99.90;;;;;;5063804;28;20451;-68
2022/05/23 00:06:19;;;;;;;5.10;1.60;;;14.30;99.90;;;;;;5069766;28;20048;-69
2022/05/23 00:08:46;;;;;;;5.38;1.75;;;14.30;99.90;;;;;;5065764;28;20371;-68
2022/05/23 00:11:11;;;;;;;5.95;1.17;;;14.30;99.90;;;;;;5070514;28;20056;-69
2022/05/23 00:13:37;;;;;;;4.43;1.25;;;14.30;99.90;;;;;;5063499;28;20366;-68
2022/05/23 00:16:03;;;;;;;5.43;1.10;;;14.20;99.90;;;;;;5065299;28;20076;-68
2022/05/23 00:18:29;;;;;;;6.50;1.50;;;14.20;99.90;;;;;;5062722;28;20444;-68
2022/05/23 00:20:55;;;;;;;3.03;0.98;;;14.10;99.90;;;;;;5067289;28;20098;-68
2022/05/23 00:23:22;;;;;;;5.18;1.23;;;14.10;99.90;;;;;;5063070;28;20040;-68
2022/05/23 00:25:49;;;;;;;5.30;1.45;;;14.10;99.90;;;;;;5064122;28;20049;-68
2022/05/23 00:28:14;;;;;;;3.80;1.38;;;14.00;99.90;;;;;;5064503;28;20047;-68
2022/05/23 00:30:40;;;;;;;6.93;1.50;;;13.90;99.90;;;;;;5068631;28;20032;-68
2022/05/23 00:35:53;;;;;;;4.78;1.50;;;13.90;99.90;;;;;;5067899;28;20039;-68
2022/05/23 00:38:20;;;;;;;5.50;1.60;;;13.80;99.90;;;;;;5067921;28;20144;-68
2022/05/23 00:44:00;;;;;;;3.78;1.27;;;13.80;99.90;;;;;;5067637;28;20546;-68
2022/05/23 00:46:26;;;;;;;5.60;1.58;;;13.70;99.90;;;;;;5068592;28;20416;-68
2022/05/23 00:48:52;;;;;;;4.65;1.23;;;13.70;99.90;;;;;;5064799;28;20044;-68
2022/05/23 00:51:18;;;;;;;3.55;1.15;;;13.70;99.90;;;;;;5068580;28;20433;-68
2022/05/23 00:53:50;;;;;;;5.47;1.58;;;13.70;99.90;;;;;;5066462;28;20123;-68
2022/05/23 00:56:18;;;;;;;5.10;1.38;;;13.70;99.90;;;;;;5064761;28;20623;-68
2022/05/23 00:58:47;;;;;;;5.20;1.48;;;13.60;99.90;;;;;;5068757;28;20263;-68
2022/05/23 01:01:18;;;;;;;3.38;1.20;;;13.70;99.90;;;;;;5067613;28;20108;-68
2022/05/23 01:03:44;;;;;;;2.90;1.30;;;13.60;99.90;;;;;;5068378;28;20047;-68
2022/05/23 01:06:09;;;;;;;4.65;1.55;;;13.60;99.90;;;;;;5062561;28;20036;-68
2022/05/23 01:08:36;;;;;;;3.78;1.33;;;13.60;99.90;;;;;;5065660;28;20049;-68
2022/05/23 01:11:03;;;;;;;2.88;1.15;;;13.60;99.90;;;;;;5065136;28;20090;-68
2022/05/23 01:13:29;;;;;;;5.18;1.20;;;13.60;99.90;;;;;;5067002;28;20185;-68
2022/05/23 01:15:55;;;;;;;4.35;1.52;;;13.60;99.90;;;;;;5064352;28;20040;-68
2022/05/23 01:18:20;;;;;;;4.40;1.50;;;13.60;99.90;;;;;;5068047;28;20040;-68
2022/05/23 01:20:52;;;;;;;2.42;1.20;;;13.60;99.90;;;;;;5066728;28;20388;-68
2022/05/23 01:23:43;;;;;;;2.88;1.10;;;13.60;99.90;;;;;;5061708;28;20048;-68
2022/05/23 01:26:09;;;;;;;3.75;1.40;;;13.60;99.90;;;;;;5066783;28;20051;-68
2022/05/23 01:28:40;;;;;;;4.20;1.50;;;13.50;99.90;;;;;;5048637;28;20056;-68
2022/05/23 01:31:08;;;;;;;4.20;1.20;;;13.60;99.90;;;;;;5067682;28;20127;-68
2022/05/23 01:33:34;;;;;;;4.10;1.25;;;13.60;99.90;;;;;;5064474;28;20040;-68
2022/05/23 01:36:00;;;;;;;3.90;1.20;;;13.60;99.90;;;;;;5062036;28;20714;-68
2022/05/23 01:38:27;;;;;;;7.07;1.40;;;13.60;99.90;;;;;;5063167;28;20048;-68
2022/05/23 01:40:55;;;;;;;5.03;1.35;;;13.60;99.90;;;;;;5062194;28;20056;-68
2022/05/23 01:43:21;;;;;;;5.05;1.30;;;13.60;99.90;;;;;;5065485;28;20037;-68
2022/05/23 01:45:47;;;;;;;5.90;1.33;;;13.60;99.90;;;;;;5064745;28;20131;-68
2022/05/23 01:48:12;;;;;;;4.68;1.45;;;13.60;99.90;;;;;;5065995;28;20116;-68
2022/05/23 01:50:38;;;;;;;4.40;1.20;;;13.60;99.90;;;;;;5066514;28;20072;-68
2022/05/23 01:53:05;;;;;;;3.17;1.33;;;13.50;99.90;;;;;;5064831;28;20044;-68
2022/05/23 01:55:31;;;;;;;4.50;1.63;;;13.60;99.90;;;;;;5063136;28;20041;-68
2022/05/23 01:57:57;;;;;;;4.55;1.30;;;13.60;99.90;;;;;;5067781;28;20124;-68
2022/05/23 02:03:07;;;;;;;6.18;1.30;;;13.60;99.90;;;;;;5066437;28;20051;-68
2022/05/23 02:05:33;;;;;;;4.43;1.45;;;13.50;99.90;;;;;;5067386;28;20036;-68
2022/05/23 02:07:59;;;;;;;3.10;1.35;;;13.60;99.90;;;;;;5065251;28;20087;-68
2022/05/23 02:10:26;;;;;;;3.13;1.00;;;13.60;99.90;;;;;;5065186;28;20045;-68
2022/05/23 02:12:52;;;;;;;3.70;1.10;;;13.60;99.90;;;;;;5067645;28;21147;-68
2022/05/23 02:15:19;;;;;;;5.57;1.08;;;13.60;99.90;;;;;;5068949;28;20041;-68
2022/05/23 02:17:45;;;;;;;2.42;1.08;;;13.60;99.90;;;;;;5069707;28;20152;-68
2022/05/23 02:20:12;;;;;;;2.00;1.20;;;13.60;99.90;;;;;;5071743;28;20036;-68
2022/05/23 02:22:38;;;;;;;4.10;1.10;;;13.60;99.90;;;;;;5067389;28;20033;-68
2022/05/23 02:25:05;;;;;;;4.72;1.17;;;13.60;99.90;;;;;;5067334;28;20451;-68
2022/05/23 02:27:31;;;;;;;3.80;1.48;;;13.60;99.90;;;;;;5068666;28;20032;-68
2022/05/23 02:29:58;;;;;;;4.60;1.35;;;13.60;99.90;;;;;;5070254;28;20460;-68
2022/05/23 02:32:24;;;;;;;2.40;1.20;;;13.60;99.90;;;;;;5068492;28;20039;-68
2022/05/23 02:34:49;;;;;;;4.10;1.15;;;13.60;99.90;;;;;;5063594;28;20403;-68
2022/05/23 02:37:15;;;;;;;3.50;1.02;;;13.60;99.90;;;;;;5067661;28;20454;-68
2022/05/23 02:39:41;;;;;;;4.13;1.17;;;13.60;99.90;;;;;;5067038;28;20392;-68
2022/05/23 02:42:07;;;;;;;5.57;1.38;;;13.60;99.90;;;;;;5068796;28;20040;-68
2022/05/23 02:44:34;;;;;;;2.92;1.15;;;13.60;99.90;;;;;;5050199;28;20043;-68
2022/05/23 02:47:00;;;;;;;4.45;1.20;;;13.60;99.90;;;;;;5070708;28;20033;-68
2022/05/23 02:49:26;;;;;;;4.25;1.48;;;13.60;99.90;;;;;;5068255;28;20082;-68
2022/05/23 02:51:53;;;;;;;4.32;1.20;;;13.60;99.90;;;;;;5069109;28;20029;-68
2022/05/23 02:54:19;;;;;;;3.03;1.00;;;13.60;99.90;;;;;;5068861;28;20125;-68
2022/05/23 02:56:45;;;;;;;4.25;1.15;;;13.60;99.90;;;;;;5071257;28;20389;-68
2022/05/23 02:59:10;;;;;;;6.55;1.50;;;13.60;99.90;;;;;;5068758;28;20045;-68
2022/05/23 03:03:01;;;;;;;2.90;1.17;;;13.60;99.90;;;;;;5068417;28;20202;-68
2022/05/23 03:04:22;;;;;;;2.78;1.35;;;13.60;99.90;;;;;;5064633;28;20044;-68
2022/05/23 03:06:47;;;;;;;4.75;1.70;;;13.50;99.90;;;;;;5069645;28;20536;-68
2022/05/23 03:09:13;;;;;;;4.60;1.55;;;13.60;99.90;;;;;;5066436;28;20032;-68
2022/05/23 03:11:38;;;;;;;4.72;1.42;;;13.60;99.90;;;;;;5071267;28;20039;-68
2022/05/23 03:14:05;;;;;;;4.55;1.45;;;13.50;99.90;;;;;;5067112;28;20052;-68
2022/05/23 03:16:30;;;;;;;4.75;1.58;;;13.50;99.90;;;;;;5067477;28;20052;-68
2022/05/23 03:18:56;;;;;;;3.67;1.30;;;13.50;99.90;;;;;;5066903;28;20044;-68
2022/05/23 03:26:59;;;;;;;4.15;1.50;;;13.50;99.90;;;;;;5068020;28;20047;-68
2022/05/23 03:29:26;;;;;;;3.53;1.42;;;13.50;99.90;;;;;;5068520;28;20127;-68
2022/05/23 03:31:52;;;;;;;3.90;1.50;;;13.50;99.90;;;;;;5068056;28;20093;-68
2022/05/23 03:34:18;;;;;;;6.95;1.50;;;13.50;99.90;;;;;;5065150;28;20037;-68
2022/05/23 03:36:43;;;;;;;5.60;1.95;;;13.50;99.90;;;;;;5068826;28;20040;-68
2022/05/23 03:39:10;;;;;;;3.67;1.48;;;13.50;99.90;;;;;;5063196;28;20063;-68
2022/05/23 03:41:35;;;;;;;5.03;1.63;;;13.50;99.90;;;;;;5065631;28;20044;-68
2022/05/23 03:44:01;;;;;;;5.45;1.42;;;13.50;99.90;;;;;;5068961;28;20169;-68
2022/05/23 03:46:28;;;;;;;6.72;1.73;;;13.50;99.90;;;;;;5068953;28;20426;-68
2022/05/23 03:48:54;;;;;;;4.97;1.63;;;13.50;99.90;;;;;;5050636;28;20125;-68
2022/05/23 03:51:20;;;;;;;4.88;1.58;;;13.50;99.90;;;;;;5067729;28;20036;-68
2022/05/23 03:53:46;;;;;;;5.20;1.85;;;13.50;99.90;;;;;;5066825;28;20028;-68
2022/05/23 03:56:12;;;;;;;3.03;1.42;;;13.40;99.90;;;;;;5063392;28;20041;-68
2022/05/23 03:58:37;;;;;;;4.32;1.75;;;13.40;99.90;;;;;;5064752;28;20119;-68
2022/05/23 04:01:12;;;;;;;6.38;1.83;;;13.40;99.90;;;;;;5045130;28;20056;-68
2022/05/23 04:03:38;;;;;;;6.63;2.15;;;13.40;99.90;;;;;;5063122;28;20146;-68
2022/05/23 04:06:04;;;;;;;7.40;1.92;;;13.30;99.90;;;;;;5046314;28;20487;-68
2022/05/23 04:08:30;;;;;;;5.95;2.13;;;13.30;99.90;;;;;;5067228;28;20127;-68
2022/05/23 04:10:56;;;;;;;6.00;2.15;;;13.30;99.90;;;;;;5068593;28;20470;-68
2022/05/23 04:13:22;;;;;;;6.82;1.83;;;13.30;99.90;;;;;;5064232;28;20051;-68
2022/05/23 04:15:47;;;;;;;5.40;2.22;;;13.30;99.90;;;;;;5062938;28;20040;-68
2022/05/23 04:18:13;;;;;;;6.45;1.92;;;13.20;99.90;;;;;;5062900;28;20036;-68
2022/05/23 04:20:40;;;;;;;4.65;1.70;;;13.20;99.90;;;;;;5070008;28;20043;-68
2022/05/23 04:23:09;;;;;;;6.90;1.92;;;13.20;99.90;;;;;;5066662;28;20384;-68
2022/05/23 04:25:47;;;;;;;10.32;2.88;;;13.30;99.90;;;;;;5063185;28;20069;-68
2022/05/23 04:28:14;;;;;;;3.78;2.25;;;13.30;99.90;;;;;;5068795;28;20036;-68
2022/05/23 04:30:40;;;;;;;5.43;1.95;;;13.30;99.90;;;;;;5066395;28;20032;-68
2022/05/23 04:35:53;;;;;;;6.00;2.00;;;13.40;99.90;;;;;;5069539;28;20076;-68
2022/05/23 04:38:19;;;;;;;6.05;2.10;;;13.40;99.90;;;;;;5045132;28;20182;-68
2022/05/23 04:40:45;;;;;;;4.18;1.85;;;13.30;99.90;;;;;;5064256;28;20197;-68
2022/05/23 04:43:11;;;;;;;6.35;2.00;;;13.40;99.90;;;;;;5068332;28;20032;-68
2022/05/23 04:45:37;;;;;;;5.95;2.25;;;13.40;99.90;;;;;;5064608;28;20174;-68
2022/05/23 04:50:48;;;;;;;12.25;7.60;;;13.50;99.90;;;;;;5063862;28;20400;-68
2022/05/23 04:53:14;;;;;;;6.80;3.47;;;13.70;99.90;;;;;;5064031;28;20123;-68
2022/05/23 04:55:41;;;;;;;4.22;2.15;;;13.90;99.90;;;;;;5063347;28;20439;-68
2022/05/23 04:58:08;;;;;;;6.78;2.75;;;14.30;99.90;;;;;;5064577;28;20320;-68
2022/05/23 05:00:34;;;;;;;7.05;1.88;;;14.40;99.90;;;;;;5066471;28;20067;-68
2022/05/23 05:03:00;;;;;;;5.97;1.95;;;14.60;99.90;;;;;;5064526;28;20045;-68
2022/05/23 05:05:27;;;;;;;3.47;1.67;;;14.80;99.90;;;;;;5044185;28;20058;-68
2022/05/23 05:07:54;;;;;;;5.80;2.38;;;14.90;99.90;;;;;;5060985;28;20048;-69
2022/05/23 05:10:23;;;;;;;5.68;2.70;;;14.80;99.90;;;;;;5041342;28;20053;-69
2022/05/23 05:12:50;;;;;;;3.50;1.83;;;14.70;99.90;;;;;;5067621;28;20041;-68
2022/05/23 05:15:16;;;;;;;3.40;1.92;;;14.60;99.90;;;;;;5067104;28;20059;-68
2022/05/23 05:17:42;;;;;;;5.15;2.53;;;14.60;99.90;;;;;;5063663;28;20350;-68
2022/05/23 05:20:08;;;;;;;5.53;2.15;;;14.70;99.90;;;;;;5069059;28;20044;-68
2022/05/23 05:22:35;;;;;;;5.88;2.10;;;14.80;99.90;;;;;;5059275;28;20040;-68
2022/05/23 05:25:03;;;;;;;3.30;2.15;;;14.80;99.90;;;;;;5065894;28;20040;-69
2022/05/23 05:27:29;;;;;;;5.90;2.85;;;14.70;99.90;;;;;;5046897;28;20450;-69
2022/05/23 05:29:55;;;;;;;8.18;2.35;;;14.70;99.90;;;;;;5067409;28;20329;-69
2022/05/23 05:33:00;;;;;;;5.95;2.95;;;14.70;99.90;;;;;;5066449;28;20460;-68
2022/05/23 05:35:53;;;;;;;6.82;2.50;;;14.70;99.90;;;;;;5007627;28;20069;-68
2022/05/23 05:38:28;;;;;;;5.25;2.40;;;14.80;99.90;;;;;;5041991;28;20063;-68
2022/05/23 05:41:04;;;;;;;5.22;2.45;;;14.80;99.90;;;;;;5064824;28;20639;-68
2022/05/23 05:43:35;;;;;;;6.07;2.65;;;14.90;99.90;;;;;;5067681;28;20048;-69
2022/05/23 05:46:13;;;;;;;5.72;2.42;;;15.00;99.90;;;;;;5069052;28;20519;-69
2022/05/23 05:48:40;;;;;;;4.78;2.95;;;15.10;99.90;;;;;;5067665;28;20049;-68
2022/05/23 05:51:11;;;;;;;6.20;2.88;;;15.30;99.90;;;;;;5061533;28;20049;-69
2022/05/23 05:53:37;;;;;;;6.00;2.63;;;15.30;99.90;;;;;;5068176;28;20033;-69
2022/05/23 05:56:05;;;;;;;7.82;3.50;;;15.40;99.90;;;;;;5065463;28;20083;-69
2022/05/23 05:58:32;;;;;;;4.70;2.60;;;15.30;99.90;;;;;;5066239;28;20109;-69
2022/05/23 06:00:58;;;;;;;4.70;2.75;;;15.40;99.90;;;;;;5065624;28;20376;-69
2022/05/23 06:03:24;;;;;;;7.05;3.35;;;15.50;99.90;;;;;;5066197;28;20058;-69
2022/05/23 06:11:24;;;;;;;4.38;2.90;;;15.70;99.90;;;;;;5067295;28;20511;-69
2022/05/23 06:13:59;;;;;;;7.30;2.83;;;15.70;99.90;;;;;;5049967;28;20707;-69
2022/05/23 06:16:26;;;;;;;8.00;3.50;;;15.90;99.90;;;;;;5069460;28;20036;-69
2022/05/23 06:18:53;;;;;;;5.18;3.00;;;16.00;99.90;;;;;;5061427;28;20040;-68
2022/05/23 06:21:19;;;;;;;8.30;3.60;;;16.20;99.90;;;;;;5067546;28;20058;-69
2022/05/23 06:23:48;;;;;;;6.68;3.40;;;16.30;99.90;;;;;;5071965;28;20122;-69
2022/05/23 06:26:20;;;;;;;7.75;3.63;;;16.40;99.90;;;;;;5068773;28;20113;-69
2022/05/23 06:28:47;;;;;;;5.50;3.10;;;16.50;99.90;;;;;;5066334;28;20076;-69
2022/05/23 06:31:15;;;;;;;8.73;3.30;;;16.60;99.90;;;;;;5068322;28;20427;-69
2022/05/23 06:33:41;;;;;;;5.40;3.30;;;16.80;99.90;;;;;;5069356;28;20048;-69
2022/05/23 06:36:08;;;;;;;7.22;3.50;;;16.90;99.90;;;;;;5067566;28;20071;-69
2022/05/23 06:38:35;;;;;;;7.50;3.63;;;16.90;99.90;;;;;;5070070;28;20110;-69
2022/05/23 06:41:03;;;;;;;8.20;3.60;;;17.00;99.90;;;;;;5065157;28;20049;-69
2022/05/23 06:43:29;;;;;;;5.53;3.20;;;17.00;99.90;;;;;;5072094;28;20036;-69
2022/05/23 06:45:56;;;;;;;7.45;3.67;;;17.20;99.90;;;;;;5068952;28;20047;-69
2022/05/23 06:48:23;;;;;;;7.45;4.00;;;17.30;99.90;;;;;;5064738;28;20041;-69
2022/05/23 06:50:50;;;;;;;6.07;3.78;;;17.50;99.90;;;;;;5065663;28;20044;-69
2022/05/23 06:53:21;;;;;;;8.18;3.78;;;17.60;99.90;;;;;;5066153;28;20124;-69
2022/05/23 06:55:48;;;;;;;8.80;3.70;;;17.70;99.90;;;;;;5069440;28;20032;-69
2022/05/23 06:58:14;;;;;;;7.38;3.80;;;17.90;99.90;;;;;;5067628;28;20059;-69
2022/05/23 07:00:40;;;;;;;5.45;3.50;;;18.00;99.90;;;;;;5070232;28;20036;-69
2022/05/23 07:03:06;;;;;;;6.43;3.72;;;18.10;99.90;;;;;;5069539;28;20040;-69
2022/05/23 07:13:47;;;;;;;9.30;3.78;;;18.60;99.90;;;;;;5067212;28;20153;-68
2022/05/23 07:16:16;;;;;;;7.05;3.67;;;18.80;99.90;;;;;;5072004;28;20444;-68
2022/05/23 07:18:42;;;;;;;5.78;3.55;;;18.90;99.90;;;;;;5069897;28;20121;-69
2022/05/23 07:21:07;;;;;;;7.78;3.58;;;19.00;99.90;;;;;;5070000;28;20064;-68
2022/05/23 07:23:35;;;;;;;10.15;3.28;;;19.00;98.90;;;;;;5067835;28;20424;-68
2022/05/23 07:26:02;;;;;;;7.18;3.63;;;19.10;99.50;;;;;;5069293;28;20036;-68
2022/05/23 07:28:28;;;;;;;6.82;3.95;;;19.30;98.80;;;;;;5068571;28;20381;-69
2022/05/23 07:30:53;;;;;;;7.25;3.08;;;19.40;98.80;;;;;;5069593;28;20041;-69
2022/05/23 07:33:20;;;;;;;5.43;3.20;;;19.60;98.50;;;;;;5060886;28;20468;-69
2022/05/23 07:35:46;;;;;;;7.70;3.38;;;19.90;97.80;;;;;;5066009;28;20448;-69
2022/05/23 07:38:12;;;;;;;8.90;3.47;;;20.00;97.90;;;;;;5067578;28;20048;-69
2022/05/23 07:40:37;;;;;;;6.85;3.22;;;20.10;97.70;;;;;;5070557;28;20138;-69
2022/05/23 07:43:03;;;;;;;5.63;3.03;;;20.30;96.70;;;;;;5069525;28;20066;-68
2022/05/23 07:45:29;;;;;;;5.75;3.35;;;20.50;95.50;;;;;;5066298;28;20110;-68
2022/05/23 07:47:54;;;;;;;4.78;3.03;;;20.60;95.10;;;;;;5069041;28;20460;-69
2022/05/23 07:50:21;;;;;;;4.95;3.25;;;20.60;94.40;;;;;;5067638;28;20053;-69
2022/05/23 08:01:01;;;;;;;6.72;3.42;;;20.90;93.20;;;;;;5066284;28;20054;-69
2022/05/23 08:03:27;;;;;;;7.55;3.75;;;21.00;93.20;;;;;;5067521;28;20080;-69
2022/05/23 08:05:53;;;;;;;7.85;3.60;;;21.10;93.60;;;;;;5068297;28;20036;-69
2022/05/23 08:08:18;;;;;;;6.43;3.40;;;21.40;94.00;;;;;;5065436;28;20468;-69
2022/05/23 08:10:44;;;;;;;5.03;3.13;;;21.50;92.80;;;;;;5069911;28;20040;-69
2022/05/23 08:13:10;;;;;;;5.30;3.33;;;21.60;92.20;;;;;;5067357;28;20032;-69
2022/05/23 08:15:38;;;;;;;7.70;3.72;;;21.60;92.40;;;;;;5068044;28;20041;-68
2022/05/23 08:18:08;;;;;;;8.30;3.40;;;21.70;92.20;;;;;;5068406;28;20040;-69
2022/05/23 08:20:36;;;;;;;6.43;3.50;;;22.00;91.50;;;;;;5064594;28;20049;-66
2022/05/23 08:23:01;;;;;;;6.63;3.50;;;22.20;91.70;;;;;;5067838;28;20481;-66
2022/05/23 08:25:27;;;;;;;6.45;3.50;;;22.60;90.80;;;;;;5069412;28;20079;-66
2022/05/23 08:27:53;;;;;;;5.80;3.45;;;23.10;88.00;;;;;;5067671;28;20424;-66
2022/05/23 08:30:19;;;;;;;6.55;3.13;;;23.40;84.90;;;;;;5066464;28;20439;-66
2022/05/23 08:32:45;;;;;;;7.47;3.25;;;23.70;85.70;;;;;;5070017;28;20036;-68
2022/05/23 08:35:11;;;;;;;7.95;3.88;;;23.80;84.20;;;;;;5067532;28;20048;-68
2022/05/23 08:37:37;;;;;;;5.35;3.30;;;24.00;83.40;;;;;;5068347;28;20066;-68
2022/05/23 08:40:06;;;;;;;5.30;3.58;;;24.20;82.00;;;;;;5068305;28;20516;-68
2022/05/23 08:42:41;;;;;;;3.95;3.10;;;24.40;79.90;;;;;;5068163;28;20045;-69
2022/05/23 08:45:25;;;;;;;4.25;3.03;;;24.60;77.70;;;;;;5067428;28;20048;-68
2022/05/23 08:48:45;;;;;;;5.47;3.25;;;24.80;74.90;;;;;;5065660;28;20523;-67
2022/05/23 08:51:23;;;;;;;4.25;3.20;;;24.70;75.70;;;;;;4988341;28;20056;-67
2022/05/23 08:53:59;;;;;;;4.93;3.42;;;24.70;73.60;;;;;;5060129;28;20464;-67
2022/05/23 08:56:37;;;;;;;5.88;3.03;;;24.70;73.80;;;;;;5066466;28;20032;-68
2022/05/23 08:59:13;;;;;;;6.47;3.22;;;24.90;71.30;;;;;;5063124;28;20431;-67
2022/05/23 09:01:48;;;;;;;6.60;3.35;;;24.90;71.80;;;;;;5067164;28;20120;-67
2022/05/23 09:04:44;;;;;;;5.63;3.00;;;25.00;71.90;;;;;;5066220;28;20479;-67
2022/05/23 09:07:27;;;;;;;6.18;3.20;;;25.20;72.70;;;;;;5060458;28;20037;-67
2022/05/23 09:09:57;;;;;;;5.03;2.97;;;25.30;69.70;;;;;;5067904;28;20081;-67
2022/05/23 09:12:23;;;;;;;7.15;3.30;;;25.50;70.10;;;;;;5067278;28;20036;-67
2022/05/23 09:14:49;;;;;;;4.10;2.90;;;25.60;70.10;;;;;;5074048;28;20120;-67
2022/05/23 09:17:25;;;;;;;4.10;2.67;;;25.70;67.70;;;;;;5067392;28;20040;-66
2022/05/23 09:20:06;;;;;;;4.65;2.65;;;25.80;66.40;;;;;;5072107;28;20047;-70
2022/05/23 09:22:48;;;;;;;6.38;2.60;;;26.00;64.70;;;;;;5063975;28;20053;-70
2022/05/23 09:25:17;;;;;;;3.70;1.85;;;26.10;68.20;;;;;;5072067;28;20477;-67
2022/05/23 09:27:49;;;;;;;4.85;2.03;;;26.40;66.20;;;;;;5071188;28;20209;-67
2022/05/23 09:30:23;;;;;;;4.20;2.60;;;26.50;65.20;;;;;;5068655;28;20037;-67
2022/05/23 09:32:57;;;;;;;6.82;2.63;;;26.50;65.20;;;;;;5067968;28;20052;-70
2022/05/23 09:35:25;;;;;;;6.68;2.17;;;26.30;66.70;;;;;;5072325;28;20670;-69
2022/05/23 09:38:27;;;;;;;4.53;2.40;;;26.00;65.30;;;;;;5064236;28;20477;-68
2022/05/23 09:40:53;;;;;;;3.55;2.28;;;25.60;62.20;;;;;;5070197;28;20041;-69
2022/05/23 09:49:13;;;;;;;6.07;2.05;;;24.90;63.70;;;;;;5069554;28;20051;-68
2022/05/23 09:51:54;;;;;;;3.88;1.88;;;24.60;63.70;;;;;;5064924;28;20053;-68
2022/05/23 09:54:37;;;;;;;4.50;1.88;;;24.40;65.10;;;;;;5072081;28;20067;-68
2022/05/23 09:57:28;;;;;;;3.63;1.70;;;24.30;64.80;;;;;;5072348;28;20040;-69
2022/05/23 10:00:08;;;;;;;3.92;1.83;;;24.30;66.40;;;;;;5069168;28;20298;-68
2022/05/23 10:02:50;;;;;;;4.45;1.95;;;24.30;67.10;;;;;;5066002;28;20040;-69
2022/05/23 10:05:25;;;;;;;4.70;1.65;;;24.40;67.80;;;;;;5068364;28;20028;-70
2022/05/23 10:07:59;;;;;;;3.35;1.52;;;24.60;67.20;;;;;;5065481;28;20060;-72
2022/05/23 10:10:26;;;;;;;;;;;24.70;66.10;;;;;;5067738;28;20057;-72
2022/05/23 10:13:19;;;;;;;4.22;1.73;;;24.80;65.30;;;;;;5067331;28;20299;-70
2022/05/23 10:15:53;;;;;;;5.45;1.90;;;24.80;64.90;;;;;;5070624;28;20049;-69
2022/05/23 10:18:24;;;;;;;3.35;1.60;;;25.00;64.60;;;;;;5066432;28;20048;-70
2022/05/23 10:20:51;;;;;;;4.57;2.30;;;25.20;65.50;;;;;;5069536;28;20051;-70
2022/05/23 10:23:23;;;;;;;4.07;1.70;;;25.30;65.40;;;;;;5068619;28;20040;-70
2022/05/23 10:26:11;;;;;;;6.63;1.97;;;25.50;65.00;;;;;;5066965;28;20048;-68
2022/05/23 10:28:49;;;;;;;4.88;1.75;;;25.80;63.10;;;;;;5067017;28;20051;-68
2022/05/23 10:31:34;;;;;;;4.70;2.30;;;26.00;61.10;;;;;;5069091;28;20111;-68
2022/05/23 10:34:08;;;;;;;3.40;1.77;;;26.00;60.90;;;;;;5068736;28;20033;-69
2022/05/23 10:36:38;;;;;;;4.05;1.58;;;26.00;59.80;;;;;;5066601;28;20124;-70
2022/05/23 10:42:18;;;;;;;4.05;1.40;;;26.30;59.10;;;;;;5065143;28;20059;-69
2022/05/23 10:45:09;;;;;;;4.32;1.38;;;26.50;58.90;;;;;;5065042;28;20041;-68
2022/05/23 10:48:05;;;;;;;3.40;1.45;;;26.90;57.40;;;;;;5070730;28;20481;-68
2022/05/23 10:50:48;;;;;;;2.28;1.00;;;27.20;56.20;;;;;;5069317;28;20051;-67
2022/05/23 10:53:22;;;;;;;2.45;0.93;;;27.30;57.00;;;;;;5067639;28;20029;-66
2022/05/23 10:56:06;;;;;;;3.47;1.10;;;27.50;55.40;;;;;;5069582;28;20044;-67
2022/05/23 10:58:55;;;;;;;4.55;2.05;;;27.70;54.10;;;;;;5068390;28;20040;-68
2022/05/23 11:01:45;;;;;;;5.15;1.20;;;27.90;53.20;;;;;;5069265;28;20461;-67
2022/05/23 11:04:30;;;;;;;3.67;1.10;;;27.80;54.10;;;;;;5066118;28;20102;-67
2022/05/23 11:06:58;;;;;;;3.92;0.93;;;27.80;53.70;;;;;;5069061;28;20502;-67
2022/05/23 11:09:58;;;;;;;4.53;1.23;;;27.80;52.70;;;;;;5069855;28;20047;-68
2022/05/23 11:12:48;;;;;;;4.28;1.40;;;28.10;54.70;;;;;;5069407;28;20073;-67
2022/05/23 11:16:04;;;;;;;2.63;1.20;;;28.60;55.10;;;;;;5063899;28;20036;-67
2022/05/23 11:18:41;;;;;;;5.20;1.10;;;28.90;51.90;;;;;;5008259;28;20133;-66
2022/05/23 11:21:12;;;;;;;1.98;1.05;;;29.10;52.40;;;;;;5057517;28;20412;-67
2022/05/23 11:23:45;;;;;;;3.30;1.08;;;29.30;50.20;;;;;;5069822;28;20117;-67
2022/05/23 11:26:24;;;;;;;4.28;1.08;;;29.40;50.40;;;;;;5069881;28;20068;-66
2022/05/23 11:34:47;;;;;;;3.15;1.10;;;28.10;51.00;;;;;;5068600;28;20086;-66
2022/05/23 11:39:57;;;;;;;2.70;1.10;;;28.00;50.50;;;;;;5067303;28;20090;-69
2022/05/23 11:42:28;;;;;;;;;;;28.00;50.60;;;;;;5066901;28;20126;-69
2022/05/23 11:47:57;;;;;;;3.65;1.25;;;27.80;53.00;;;;;;5065012;28;20051;-67
2022/05/23 11:50:30;;;;;;;4.13;1.13;;;27.90;51.80;;;;;;5063367;28;20089;-67
2022/05/23 11:53:12;;;;;;;6.40;1.55;;;27.90;52.00;;;;;;5068751;28;20456;-69
2022/05/23 11:56:06;;;;;;;3.35;1.30;;;27.90;53.30;;;;;;5070491;28;20044;-69
2022/05/23 11:58:36;;;;;;;4.75;1.30;;;28.30;53.70;;;;;;5066651;28;20052;-68
2022/05/23 12:01:03;;;;;;;3.90;1.38;;;28.60;51.90;;;;;;5066336;28;20040;-69
2022/05/23 12:03:55;;;;;;;5.32;1.55;;;28.90;53.40;;;;;;5066334;28;20062;-70
2022/05/23 12:06:24;;;;;;;4.55;1.60;;;29.30;50.50;;;;;;5047006;28;20063;-69
2022/05/23 12:09:22;;;;;;;4.50;1.45;;;29.10;50.30;;;;;;5067532;28;20320;-69
2022/05/23 12:12:12;;;;;;;3.55;1.35;;;28.80;50.30;;;;;;5066451;28;20036;-69
2022/05/23 12:14:38;;;;;;;5.40;2.00;;;28.10;51.00;;;;;;5062924;28;20056;-71
2022/05/23 12:17:20;;;;;;;2.70;1.17;;;27.50;51.50;;;;;;5064276;28;20045;-70
2022/05/23 12:19:53;;;;;;;5.75;1.80;;;27.00;53.60;;;;;;5067752;28;20080;-67
2022/05/23 12:22:29;;;;;;;4.07;1.60;;;26.60;55.70;;;;;;5066948;28;20048;-67
2022/05/23 12:25:12;;;;;;;6.95;1.85;;;26.40;55.40;;;;;;5068309;28;20051;-70
2022/05/23 12:27:42;;;;;;;2.35;1.30;;;26.30;57.40;;;;;;5065507;28;20442;-70
2022/05/23 12:30:17;;;;;;;4.10;1.67;;;26.30;58.20;;;;;;5068091;28;20048;-69
2022/05/23 12:32:47;;;;;;;3.50;1.40;;;26.40;57.60;;;;;;5063947;28;20080;-71
2022/05/23 12:35:14;;;;;;;3.30;1.20;;;26.40;56.40;;;;;;5067690;28;20037;-72
2022/05/23 12:38:20;;;;;;;1.80;1.10;;;26.20;56.00;;;;;;5067038;28;20119;-71
2022/05/23 12:41:10;;;;;;;4.45;1.30;;;26.20;56.90;;;;;;5065784;28;20135;-69
2022/05/23 12:44:16;;;;;;;4.38;1.33;;;26.00;58.20;;;;;;5063874;28;20060;-72
2022/05/23 12:46:48;;;;;;;3.15;1.38;;;26.00;58.70;;;;;;5067078;28;20054;-68
2022/05/23 12:49:23;;;;;;;3.03;1.40;;;25.90;58.70;;;;;;5065888;28;20144;-68
2022/05/23 12:52:12;;;;;;;4.50;2.28;;;25.80;59.00;;;;;;5065557;28;20047;-69
2022/05/23 12:54:45;;;;;;;4.15;2.20;;;25.70;59.40;;;;;;5067735;28;20051;-71
2022/05/23 12:57:38;;;;;;;4.15;1.90;;;25.50;59.40;;;;;;5066048;28;20044;-70
2022/05/23 13:00:15;;;;;;;4.20;2.00;;;25.40;60.10;;;;;;5067226;28;20115;-67
2022/05/23 13:03:01;;;;;;;4.10;2.40;;;25.20;62.00;;;;;;5065906;28;20033;-67
2022/05/23 13:05:34;;;;;;;5.45;2.30;;;25.10;63.40;;;;;;5067148;28;20088;-67
2022/05/23 13:08:15;;;;;;;4.43;2.33;;;24.90;64.60;;;;;;5065928;28;20036;-67
2022/05/23 13:10:47;;;;;;;4.53;2.40;;;24.70;65.80;;;;;;5068500;28;20054;-66
2022/05/23 13:13:36;;;;;;;4.53;2.50;;;24.40;67.70;;;;;;5065050;28;20053;-66
2022/05/23 13:16:25;;;;;;;6.93;2.47;;;24.30;68.40;;;;;;5068200;28;20388;-67
2022/05/23 13:24:53;;;;;;;4.88;2.92;;;24.10;71.40;;;;;;5036419;28;20052;-66
2022/05/23 13:27:21;;;;;;;5.90;3.00;;;24.20;71.20;;;;;;5064758;28;20399;-67
2022/05/23 13:29:59;;;;;;;5.97;3.00;;;24.10;73.40;;;;;;5061598;28;20048;-67
2022/05/23 13:32:26;;;;;;;5.18;2.65;;;24.10;73.40;;;;;;5068508;28;20063;-67
2022/05/23 13:34:53;;;;;;;5.97;2.83;;;24.10;72.70;;;;;;5066063;28;20116;-67
2022/05/23 13:37:35;;;;;;;6.15;2.92;;;24.10;73.10;;;;;;5068104;28;20036;-67
2022/05/23 13:40:21;;;;;;;5.85;3.22;;;24.10;72.70;;;;;;5066971;28;20197;-67
2022/05/23 13:42:47;;;;;;;6.15;3.00;;;24.10;71.40;;;;;;5067356;28;20091;-67
2022/05/23 13:45:18;;;;;;;4.55;2.90;;;24.10;72.50;;;;;;5064082;28;20080;-67
2022/05/23 13:47:55;;;;;;;4.75;2.65;;;24.20;73.00;;;;;;5067503;28;20390;-67
2022/05/23 13:50:48;;;;;;;5.07;2.60;;;24.30;71.60;;;;;;5063264;28;20092;-67
2022/05/23 13:53:33;;;;;;;4.90;2.65;;;24.30;71.80;;;;;;5065383;28;20456;-68
2022/05/23 13:56:01;;;;;;;;;;;24.40;72.90;;;;;;5067333;28;20032;-68
2022/05/23 13:58:30;;;;;;;;;;;24.40;72.50;;;;;;5065315;28;19990;-67
2022/05/23 14:00:57;;;;;;;;;;;24.40;72.30;;;;;;5072069;28;19916;-68
2022/05/23 14:03:23;;;;;;;;;;;24.40;71.40;;;;;;5071405;28;19924;-68
2022/05/23 14:05:51;;;;;;;;;;;24.40;69.50;;;;;;5072678;28;19917;-68
2022/05/23 14:08:20;;;;;;;;;;;24.40;69.80;;;;;;5071640;28;19963;-66
2022/05/23 14:10:46;;;;;;;;;;;24.50;70.00;;;;;;5070307;28;19917;-68
2022/05/23 14:13:12;;;;;;;;;;;24.50;70.60;;;;;;5072628;28;19951;-68
2022/05/23 14:15:38;;;;;;;;;;;24.50;69.90;;;;;;5072756;28;19981;-69
2022/05/23 14:18:11;;;;;;;;;;;24.50;69.70;;;;;;5069439;28;19924;-67
2022/05/23 14:20:45;;;;;;;;;;;24.40;69.60;;;;;;5065341;28;19917;-68